sensor_id;sensor_type;location;lat;lon;timestamp;temperature;humidity
18291;DHT22;9271;48.590;8.866;2023-07-13T00:01:45;21.30;86.80
18291;DHT22;9271;48.590;8.866;2023-07-13T00:04:15;21.20;86.60
18291;DHT22;9271;48.590;8.866;2023-07-13T00:06:42;21.10;87.80
18291;DHT22;9271;48.590;8.866;2023-07-13T00:09:10;21.20;87.90
18291;DHT22;9271;48.590;8.866;2023-07-13T00:11:37;21.00;88.30
18291;DHT22;9271;48.590;8.866;2023-07-13T00:14:03;20.90;89.80
18291;DHT22;9271;48.590;8.866;2023-07-13T00:16:30;20.80;89.20
18291;DHT22;9271;48.590;8.866;2023-07-13T00:18:58;21.00;87.60
18291;DHT22;9271;48.590;8.866;2023-07-13T00:21:26;20.90;88.30
18291;DHT22;9271;48.590;8.866;2023-07-13T00:23:53;20.60;88.60
18291;DHT22;9271;48.590;8.866;2023-07-13T00:26:19;20.60;90.40
18291;DHT22;9271;48.590;8.866;2023-07-13T00:28:46;20.60;89.40
18291;DHT22;9271;48.590;8.866;2023-07-13T00:31:13;20.70;89.60
18291;DHT22;9271;48.590;8.866;2023-07-13T00:33:40;20.40;89.40
18291;DHT22;9271;48.590;8.866;2023-07-13T00:36:09;20.50;90.00
18291;DHT22;9271;48.590;8.866;2023-07-13T00:38:36;20.60;89.30
18291;DHT22;9271;48.590;8.866;2023-07-13T00:41:04;20.70;88.80
18291;DHT22;9271;48.590;8.866;2023-07-13T00:43:31;20.80;89.40
18291;DHT22;9271;48.590;8.866;2023-07-13T00:46:20;20.80;90.30
18291;DHT22;9271;48.590;8.866;2023-07-13T00:48:48;20.80;90.40
18291;DHT22;9271;48.590;8.866;2023-07-13T00:51:20;20.70;91.00
18291;DHT22;9271;48.590;8.866;2023-07-13T00:53:47;20.60;91.20
18291;DHT22;9271;48.590;8.866;2023-07-13T00:56:14;20.60;91.40
18291;DHT22;9271;48.590;8.866;2023-07-13T00:58:41;20.50;91.50
18291;DHT22;9271;48.590;8.866;2023-07-13T01:01:08;20.50;91.90
18291;DHT22;9271;48.590;8.866;2023-07-13T01:03:35;20.50;92.10
18291;DHT22;9271;48.590;8.866;2023-07-13T01:06:03;20.60;91.90
18291;DHT22;9271;48.590;8.866;2023-07-13T01:08:31;20.60;92.40
18291;DHT22;9271;48.590;8.866;2023-07-13T01:10:58;20.60;92.30
18291;DHT22;9271;48.590;8.866;2023-07-13T01:13:25;20.60;92.20
18291;DHT22;9271;48.590;8.866;2023-07-13T01:15:55;20.70;92.20
18291;DHT22;9271;48.590;8.866;2023-07-13T01:18:25;20.60;92.40
18291;DHT22;9271;48.590;8.866;2023-07-13T01:20:55;20.60;92.20
18291;DHT22;9271;48.590;8.866;2023-07-13T01:23:23;20.60;92.10
18291;DHT22;9271;48.590;8.866;2023-07-13T01:25:50;20.60;91.80
18291;DHT22;9271;48.590;8.866;2023-07-13T01:28:17;20.50;92.30
18291;DHT22;9271;48.590;8.866;2023-07-13T01:30:45;20.30;92.80
18291;DHT22;9271;48.590;8.866;2023-07-13T01:33:13;20.10;92.70
18291;DHT22;9271;48.590;8.866;2023-07-13T01:35:40;19.90;93.80
18291;DHT22;9271;48.590;8.866;2023-07-13T01:38:08;19.70;94.20
18291;DHT22;9271;48.590;8.866;2023-07-13T01:40:36;19.90;94.30
18291;DHT22;9271;48.590;8.866;2023-07-13T01:43:03;19.90;94.30
18291;DHT22;9271;48.590;8.866;2023-07-13T01:45:30;19.10;95.50
18291;DHT22;9271;48.590;8.866;2023-07-13T01:47:57;18.70;96.40
18291;DHT22;9271;48.590;8.866;2023-07-13T01:50:24;18.90;96.50
18291;DHT22;9271;48.590;8.866;2023-07-13T01:52:51;19.20;95.50
18291;DHT22;9271;48.590;8.866;2023-07-13T01:55:19;19.40;95.20
18291;DHT22;9271;48.590;8.866;2023-07-13T01:57:46;19.30;96.10
18291;DHT22;9271;48.590;8.866;2023-07-13T02:00:13;19.20;95.50
18291;DHT22;9271;48.590;8.866;2023-07-13T02:02:40;19.00;95.30
18291;DHT22;9271;48.590;8.866;2023-07-13T02:05:08;19.00;95.60
18291;DHT22;9271;48.590;8.866;2023-07-13T02:07:34;19.20;95.50
18291;DHT22;9271;48.590;8.866;2023-07-13T02:10:01;19.30;94.90
18291;DHT22;9271;48.590;8.866;2023-07-13T02:12:29;19.20;95.30
18291;DHT22;9271;48.590;8.866;2023-07-13T02:14:56;19.30;95.10
18291;DHT22;9271;48.590;8.866;2023-07-13T02:17:22;19.40;95.30
18291;DHT22;9271;48.590;8.866;2023-07-13T02:19:49;19.30;95.40
18291;DHT22;9271;48.590;8.866;2023-07-13T02:22:15;19.30;95.50
18291;DHT22;9271;48.590;8.866;2023-07-13T02:24:42;19.20;95.40
18291;DHT22;9271;48.590;8.866;2023-07-13T02:27:09;19.30;95.30
18291;DHT22;9271;48.590;8.866;2023-07-13T02:29:37;19.20;96.30
18291;DHT22;9271;48.590;8.866;2023-07-13T02:32:04;18.90;96.60
18291;DHT22;9271;48.590;8.866;2023-07-13T02:34:31;18.70;96.90
18291;DHT22;9271;48.590;8.866;2023-07-13T02:36:58;18.50;97.30
18291;DHT22;9271;48.590;8.866;2023-07-13T02:39:24;18.60;97.30
18291;DHT22;9271;48.590;8.866;2023-07-13T02:41:51;18.70;97.40
18291;DHT22;9271;48.590;8.866;2023-07-13T02:44:17;18.80;97.50
18291;DHT22;9271;48.590;8.866;2023-07-13T02:46:45;18.80;97.90
18291;DHT22;9271;48.590;8.866;2023-07-13T02:49:12;18.80;98.00
18291;DHT22;9271;48.590;8.866;2023-07-13T02:51:39;18.70;98.40
18291;DHT22;9271;48.590;8.866;2023-07-13T02:54:05;18.70;98.20
18291;DHT22;9271;48.590;8.866;2023-07-13T02:56:34;18.90;97.60
18291;DHT22;9271;48.590;8.866;2023-07-13T02:59:00;18.90;97.40
18291;DHT22;9271;48.590;8.866;2023-07-13T03:01:28;18.90;97.40
18291;DHT22;9271;48.590;8.866;2023-07-13T03:03:56;19.10;97.30
18291;DHT22;9271;48.590;8.866;2023-07-13T03:06:22;18.90;98.10
18291;DHT22;9271;48.590;8.866;2023-07-13T03:08:50;18.80;98.20
18291;DHT22;9271;48.590;8.866;2023-07-13T03:11:18;18.90;98.10
18291;DHT22;9271;48.590;8.866;2023-07-13T03:13:46;18.90;98.20
18291;DHT22;9271;48.590;8.866;2023-07-13T03:16:14;19.00;98.10
18291;DHT22;9271;48.590;8.866;2023-07-13T03:18:41;18.70;98.10
18291;DHT22;9271;48.590;8.866;2023-07-13T03:21:10;18.40;98.70
18291;DHT22;9271;48.590;8.866;2023-07-13T03:23:36;18.30;99.10
18291;DHT22;9271;48.590;8.866;2023-07-13T03:26:05;18.40;99.00
18291;DHT22;9271;48.590;8.866;2023-07-13T03:28:32;18.80;97.90
18291;DHT22;9271;48.590;8.866;2023-07-13T03:31:01;18.90;97.70
18291;DHT22;9271;48.590;8.866;2023-07-13T03:33:27;19.00;97.60
18291;DHT22;9271;48.590;8.866;2023-07-13T03:35:55;18.90;98.10
18291;DHT22;9271;48.590;8.866;2023-07-13T03:38:23;18.90;97.80
18291;DHT22;9271;48.590;8.866;2023-07-13T03:40:50;19.00;97.80
18291;DHT22;9271;48.590;8.866;2023-07-13T03:43:17;19.00;97.90
18291;DHT22;9271;48.590;8.866;2023-07-13T03:45:43;19.00;98.20
18291;DHT22;9271;48.590;8.866;2023-07-13T03:48:10;18.90;97.90
18291;DHT22;9271;48.590;8.866;2023-07-13T03:50:36;19.00;97.90
18291;DHT22;9271;48.590;8.866;2023-07-13T03:53:04;19.10;97.80
18291;DHT22;9271;48.590;8.866;2023-07-13T03:55:32;19.20;97.50
18291;DHT22;9271;48.590;8.866;2023-07-13T03:58:01;19.20;97.50
18291;DHT22;9271;48.590;8.866;2023-07-13T04:00:47;19.20;96.80
18291;DHT22;9271;48.590;8.866;2023-07-13T04:03:14;18.90;97.20
18291;DHT22;9271;48.590;8.866;2023-07-13T04:05:41;18.90;97.60
18291;DHT22;9271;48.590;8.866;2023-07-13T04:08:08;19.00;97.20
18291;DHT22;9271;48.590;8.866;2023-07-13T04:10:35;19.20;97.10
18291;DHT22;9271;48.590;8.866;2023-07-13T04:13:01;19.40;97.00
18291;DHT22;9271;48.590;8.866;2023-07-13T04:15:29;19.20;97.30
18291;DHT22;9271;48.590;8.866;2023-07-13T04:17:58;19.30;97.20
18291;DHT22;9271;48.590;8.866;2023-07-13T04:20:25;19.30;97.20
18291;DHT22;9271;48.590;8.866;2023-07-13T04:22:52;19.20;97.30
18291;DHT22;9271;48.590;8.866;2023-07-13T04:25:20;19.20;97.50
18291;DHT22;9271;48.590;8.866;2023-07-13T04:27:46;19.30;97.20
18291;DHT22;9271;48.590;8.866;2023-07-13T04:30:13;19.30;97.10
18291;DHT22;9271;48.590;8.866;2023-07-13T04:32:40;19.40;96.70
18291;DHT22;9271;48.590;8.866;2023-07-13T04:35:08;19.40;96.40
18291;DHT22;9271;48.590;8.866;2023-07-13T04:37:35;19.40;96.80
18291;DHT22;9271;48.590;8.866;2023-07-13T04:40:02;19.20;97.10
18291;DHT22;9271;48.590;8.866;2023-07-13T04:42:29;19.20;97.20
18291;DHT22;9271;48.590;8.866;2023-07-13T04:44:56;19.20;97.50
18291;DHT22;9271;48.590;8.866;2023-07-13T04:47:23;19.30;97.50
18291;DHT22;9271;48.590;8.866;2023-07-13T04:49:49;19.20;98.20
18291;DHT22;9271;48.590;8.866;2023-07-13T04:52:17;19.20;98.20
18291;DHT22;9271;48.590;8.866;2023-07-13T04:54:44;19.20;98.20
18291;DHT22;9271;48.590;8.866;2023-07-13T04:57:11;19.30;97.70
18291;DHT22;9271;48.590;8.866;2023-07-13T04:59:37;19.60;97.40
18291;DHT22;9271;48.590;8.866;2023-07-13T05:02:04;19.60;97.30
18291;DHT22;9271;48.590;8.866;2023-07-13T05:04:31;19.70;97.00
18291;DHT22;9271;48.590;8.866;2023-07-13T05:06:59;19.90;96.80
18291;DHT22;9271;48.590;8.866;2023-07-13T05:09:27;20.30;96.10
18291;DHT22;9271;48.590;8.866;2023-07-13T05:11:54;20.60;95.80
18291;DHT22;9271;48.590;8.866;2023-07-13T05:14:20;20.70;95.30
18291;DHT22;9271;48.590;8.866;2023-07-13T05:16:47;20.90;95.20
18291;DHT22;9271;48.590;8.866;2023-07-13T05:19:14;20.90;94.80
18291;DHT22;9271;48.590;8.866;2023-07-13T05:21:40;21.10;94.70
18291;DHT22;9271;48.590;8.866;2023-07-13T05:24:07;21.10;94.30
18291;DHT22;9271;48.590;8.866;2023-07-13T05:26:35;21.20;93.80
18291;DHT22;9271;48.590;8.866;2023-07-13T05:29:02;21.20;94.20
18291;DHT22;9271;48.590;8.866;2023-07-13T05:31:28;21.20;94.10
18291;DHT22;9271;48.590;8.866;2023-07-13T05:33:55;21.20;93.70
18291;DHT22;9271;48.590;8.866;2023-07-13T05:36:20;21.20;93.70
18291;DHT22;9271;48.590;8.866;2023-07-13T05:38:47;21.20;93.70
18291;DHT22;9271;48.590;8.866;2023-07-13T05:41:14;21.20;92.70
18291;DHT22;9271;48.590;8.866;2023-07-13T05:43:42;21.10;93.20
18291;DHT22;9271;48.590;8.866;2023-07-13T05:46:08;21.30;93.40
18291;DHT22;9271;48.590;8.866;2023-07-13T05:48:35;21.50;93.90
18291;DHT22;9271;48.590;8.866;2023-07-13T05:51:02;21.40;95.00
18291;DHT22;9271;48.590;8.866;2023-07-13T05:53:29;21.30;95.60
18291;DHT22;9271;48.590;8.866;2023-07-13T05:55:56;21.10;94.70
18291;DHT22;9271;48.590;8.866;2023-07-13T05:58:22;20.50;94.60
18291;DHT22;9271;48.590;8.866;2023-07-13T06:00:59;19.90;96.00
18291;DHT22;9271;48.590;8.866;2023-07-13T06:03:26;20.40;95.30
18291;DHT22;9271;48.590;8.866;2023-07-13T06:05:52;20.90;94.10
18291;DHT22;9271;48.590;8.866;2023-07-13T06:08:19;21.20;94.70
18291;DHT22;9271;48.590;8.866;2023-07-13T06:10:45;21.60;94.60
18291;DHT22;9271;48.590;8.866;2023-07-13T06:13:12;22.00;94.30
18291;DHT22;9271;48.590;8.866;2023-07-13T06:15:39;22.10;92.90
18291;DHT22;9271;48.590;8.866;2023-07-13T06:18:07;22.60;92.50
18291;DHT22;9271;48.590;8.866;2023-07-13T06:20:34;22.80;91.70
18291;DHT22;9271;48.590;8.866;2023-07-13T06:23:01;22.70;91.20
18291;DHT22;9271;48.590;8.866;2023-07-13T06:25:28;22.60;90.90
18291;DHT22;9271;48.590;8.866;2023-07-13T06:27:54;22.70;90.90
18291;DHT22;9271;48.590;8.866;2023-07-13T06:30:21;22.80;90.60
18291;DHT22;9271;48.590;8.866;2023-07-13T06:32:48;23.00;90.00
18291;DHT22;9271;48.590;8.866;2023-07-13T06:35:16;23.20;90.00
18291;DHT22;9271;48.590;8.866;2023-07-13T06:37:42;23.30;89.80
18291;DHT22;9271;48.590;8.866;2023-07-13T06:40:09;23.40;88.30
18291;DHT22;9271;48.590;8.866;2023-07-13T06:42:36;23.30;87.20
18291;DHT22;9271;48.590;8.866;2023-07-13T06:45:04;23.20;86.80
18291;DHT22;9271;48.590;8.866;2023-07-13T06:47:31;23.20;81.20
18291;DHT22;9271;48.590;8.866;2023-07-13T06:49:58;22.90;78.80
18291;DHT22;9271;48.590;8.866;2023-07-13T06:52:26;22.90;80.80
18291;DHT22;9271;48.590;8.866;2023-07-13T06:54:53;23.20;80.50
18291;DHT22;9271;48.590;8.866;2023-07-13T06:57:20;23.50;76.50
18291;DHT22;9271;48.590;8.866;2023-07-13T06:59:46;23.40;77.90
18291;DHT22;9271;48.590;8.866;2023-07-13T07:02:13;23.40;78.50
18291;DHT22;9271;48.590;8.866;2023-07-13T07:04:40;23.60;77.60
18291;DHT22;9271;48.590;8.866;2023-07-13T07:07:06;23.60;78.70
18291;DHT22;9271;48.590;8.866;2023-07-13T07:09:34;23.70;79.40
18291;DHT22;9271;48.590;8.866;2023-07-13T07:12:02;23.90;77.60
18291;DHT22;9271;48.590;8.866;2023-07-13T07:14:29;24.10;76.80
18291;DHT22;9271;48.590;8.866;2023-07-13T07:16:56;24.20;77.60
18291;DHT22;9271;48.590;8.866;2023-07-13T07:19:24;24.30;75.50
18291;DHT22;9271;48.590;8.866;2023-07-13T07:21:50;24.30;74.20
18291;DHT22;9271;48.590;8.866;2023-07-13T07:24:17;24.20;74.60
18291;DHT22;9271;48.590;8.866;2023-07-13T07:26:45;24.40;75.90
18291;DHT22;9271;48.590;8.866;2023-07-13T07:29:11;24.60;74.50
18291;DHT22;9271;48.590;8.866;2023-07-13T07:31:38;25.00;71.60
18291;DHT22;9271;48.590;8.866;2023-07-13T07:34:05;25.10;68.90
18291;DHT22;9271;48.590;8.866;2023-07-13T07:36:32;25.00;68.30
18291;DHT22;9271;48.590;8.866;2023-07-13T07:38:59;24.80;68.10
18291;DHT22;9271;48.590;8.866;2023-07-13T07:41:25;25.20;67.60
18291;DHT22;9271;48.590;8.866;2023-07-13T07:43:53;25.40;67.40
18291;DHT22;9271;48.590;8.866;2023-07-13T07:46:20;25.10;66.20
18291;DHT22;9271;48.590;8.866;2023-07-13T07:48:46;26.10;61.80
18291;DHT22;9271;48.590;8.866;2023-07-13T07:51:13;27.30;59.90
18291;DHT22;9271;48.590;8.866;2023-07-13T07:53:39;28.30;55.70
18291;DHT22;9271;48.590;8.866;2023-07-13T07:56:06;28.70;55.80
18291;DHT22;9271;48.590;8.866;2023-07-13T07:58:33;29.70;54.60
18291;DHT22;9271;48.590;8.866;2023-07-13T08:01:05;29.90;52.70
18291;DHT22;9271;48.590;8.866;2023-07-13T08:03:32;29.70;53.70
18291;DHT22;9271;48.590;8.866;2023-07-13T08:05:59;29.60;53.80
18291;DHT22;9271;48.590;8.866;2023-07-13T08:08:26;29.30;52.30
18291;DHT22;9271;48.590;8.866;2023-07-13T08:10:53;28.00;54.20
18291;DHT22;9271;48.590;8.866;2023-07-13T08:13:19;27.10;55.20
18291;DHT22;9271;48.590;8.866;2023-07-13T08:15:46;27.40;55.80
18291;DHT22;9271;48.590;8.866;2023-07-13T08:18:16;27.10;53.10
18291;DHT22;9271;48.590;8.866;2023-07-13T08:20:42;26.60;54.10
18291;DHT22;9271;48.590;8.866;2023-07-13T08:23:10;26.90;54.10
18291;DHT22;9271;48.590;8.866;2023-07-13T08:25:36;27.30;54.50
18291;DHT22;9271;48.590;8.866;2023-07-13T08:28:04;27.90;52.90
18291;DHT22;9271;48.590;8.866;2023-07-13T08:30:30;27.70;53.30
18291;DHT22;9271;48.590;8.866;2023-07-13T08:32:57;27.80;53.40
18291;DHT22;9271;48.590;8.866;2023-07-13T08:35:25;27.80;54.50
18291;DHT22;9271;48.590;8.866;2023-07-13T08:37:52;27.90;52.40
18291;DHT22;9271;48.590;8.866;2023-07-13T08:40:19;27.90;51.40
18291;DHT22;9271;48.590;8.866;2023-07-13T08:42:54;27.70;52.30
18291;DHT22;9271;48.590;8.866;2023-07-13T08:45:23;26.90;51.80
18291;DHT22;9271;48.590;8.866;2023-07-13T08:47:53;26.00;53.90
18291;DHT22;9271;48.590;8.866;2023-07-13T08:53:10;27.40;56.50
18291;DHT22;9271;48.590;8.866;2023-07-13T08:55:37;28.10;51.40
18291;DHT22;9271;48.590;8.866;2023-07-13T08:58:10;28.40;53.30
18291;DHT22;9271;48.590;8.866;2023-07-13T09:00:44;28.70;49.80
18291;DHT22;9271;48.590;8.866;2023-07-13T09:03:20;27.50;50.10
18291;DHT22;9271;48.590;8.866;2023-07-13T09:05:52;26.30;53.20
18291;DHT22;9271;48.590;8.866;2023-07-13T09:08:34;26.80;52.20
18291;DHT22;9271;48.590;8.866;2023-07-13T09:11:11;26.30;54.90
18291;DHT22;9271;48.590;8.866;2023-07-13T09:13:45;25.70;54.10
18291;DHT22;9271;48.590;8.866;2023-07-13T09:16:15;26.00;55.20
18291;DHT22;9271;48.590;8.866;2023-07-13T09:18:44;26.70;54.60
18291;DHT22;9271;48.590;8.866;2023-07-13T09:21:13;27.90;56.80
18291;DHT22;9271;48.590;8.866;2023-07-13T09:23:42;28.50;51.80
18291;DHT22;9271;48.590;8.866;2023-07-13T09:26:13;29.50;49.60
18291;DHT22;9271;48.590;8.866;2023-07-13T09:28:43;29.70;52.20
18291;DHT22;9271;48.590;8.866;2023-07-13T09:31:13;28.80;47.80
18291;DHT22;9271;48.590;8.866;2023-07-13T09:33:40;28.50;50.10
18291;DHT22;9271;48.590;8.866;2023-07-13T09:36:19;28.90;49.20
18291;DHT22;9271;48.590;8.866;2023-07-13T09:38:48;28.40;48.60
18291;DHT22;9271;48.590;8.866;2023-07-13T09:41:21;27.60;51.70
18291;DHT22;9271;48.590;8.866;2023-07-13T09:44:08;26.70;50.80
18291;DHT22;9271;48.590;8.866;2023-07-13T09:46:37;27.40;51.50
18291;DHT22;9271;48.590;8.866;2023-07-13T09:49:04;27.50;50.40
18291;DHT22;9271;48.590;8.866;2023-07-13T09:51:30;28.00;50.00
18291;DHT22;9271;48.590;8.866;2023-07-13T09:53:58;28.40;48.90
18291;DHT22;9271;48.590;8.866;2023-07-13T09:56:27;27.60;49.70
18291;DHT22;9271;48.590;8.866;2023-07-13T09:58:56;27.80;50.10
18291;DHT22;9271;48.590;8.866;2023-07-13T10:01:34;27.30;49.40
18291;DHT22;9271;48.590;8.866;2023-07-13T10:04:01;26.50;50.00
18291;DHT22;9271;48.590;8.866;2023-07-13T10:06:28;26.70;49.40
18291;DHT22;9271;48.590;8.866;2023-07-13T10:08:57;26.90;49.30
18291;DHT22;9271;48.590;8.866;2023-07-13T10:11:27;26.60;50.70
18291;DHT22;9271;48.590;8.866;2023-07-13T10:13:57;27.30;49.30
18291;DHT22;9271;48.590;8.866;2023-07-13T10:16:27;28.20;48.30
18291;DHT22;9271;48.590;8.866;2023-07-13T10:19:00;27.90;48.60
18291;DHT22;9271;48.590;8.866;2023-07-13T10:21:32;27.90;49.10
18291;DHT22;9271;48.590;8.866;2023-07-13T10:24:06;27.50;50.50
18291;DHT22;9271;48.590;8.866;2023-07-13T10:26:43;27.10;50.40
18291;DHT22;9271;48.590;8.866;2023-07-13T10:29:14;26.40;50.10
18291;DHT22;9271;48.590;8.866;2023-07-13T10:31:41;26.60;50.10
18291;DHT22;9271;48.590;8.866;2023-07-13T10:34:09;26.80;49.30
18291;DHT22;9271;48.590;8.866;2023-07-13T10:36:41;27.30;48.70
18291;DHT22;9271;48.590;8.866;2023-07-13T10:39:16;28.00;46.80
18291;DHT22;9271;48.590;8.866;2023-07-13T10:41:44;29.10;49.20
18291;DHT22;9271;48.590;8.866;2023-07-13T10:44:19;29.60;46.50
18291;DHT22;9271;48.590;8.866;2023-07-13T10:46:46;30.40;44.20
18291;DHT22;9271;48.590;8.866;2023-07-13T10:49:14;31.10;45.00
18291;DHT22;9271;48.590;8.866;2023-07-13T10:51:42;31.60;40.20
18291;DHT22;9271;48.590;8.866;2023-07-13T10:54:17;29.70;41.00
18291;DHT22;9271;48.590;8.866;2023-07-13T10:56:45;29.70;41.20
18291;DHT22;9271;48.590;8.866;2023-07-13T10:59:15;30.20;42.50
18291;DHT22;9271;48.590;8.866;2023-07-13T11:01:55;30.40;40.80
18291;DHT22;9271;48.590;8.866;2023-07-13T11:04:22;29.70;41.70
18291;DHT22;9271;48.590;8.866;2023-07-13T11:06:53;29.70;46.40
18291;DHT22;9271;48.590;8.866;2023-07-13T11:09:34;30.80;40.70
18291;DHT22;9271;48.590;8.866;2023-07-13T11:12:05;31.00;41.70
18291;DHT22;9271;48.590;8.866;2023-07-13T11:14:36;30.70;40.40
18291;DHT22;9271;48.590;8.866;2023-07-13T11:17:23;27.80;42.80
18291;DHT22;9271;48.590;8.866;2023-07-13T11:19:52;28.00;45.30
18291;DHT22;9271;48.590;8.866;2023-07-13T11:22:24;28.70;42.40
18291;DHT22;9271;48.590;8.866;2023-07-13T11:25:01;29.00;40.10
18291;DHT22;9271;48.590;8.866;2023-07-13T11:27:34;28.30;40.00
18291;DHT22;9271;48.590;8.866;2023-07-13T11:30:20;28.10;41.70
18291;DHT22;9271;48.590;8.866;2023-07-13T11:32:50;28.70;40.40
18291;DHT22;9271;48.590;8.866;2023-07-13T11:35:22;29.40;39.50
18291;DHT22;9271;48.590;8.866;2023-07-13T11:37:49;28.80;40.90
18291;DHT22;9271;48.590;8.866;2023-07-13T11:40:19;28.30;42.30
18291;DHT22;9271;48.590;8.866;2023-07-13T11:42:48;28.10;41.70
18291;DHT22;9271;48.590;8.866;2023-07-13T11:45:20;29.10;42.00
18291;DHT22;9271;48.590;8.866;2023-07-13T11:47:49;30.50;43.70
18291;DHT22;9271;48.590;8.866;2023-07-13T11:50:20;31.80;40.30
18291;DHT22;9271;48.590;8.866;2023-07-13T11:52:48;32.50;40.50
18291;DHT22;9271;48.590;8.866;2023-07-13T11:55:20;33.50;40.70
18291;DHT22;9271;48.590;8.866;2023-07-13T11:57:50;34.10;36.40
18291;DHT22;9271;48.590;8.866;2023-07-13T12:00:21;34.40;38.20
18291;DHT22;9271;48.590;8.866;2023-07-13T12:02:51;33.90;36.40
18291;DHT22;9271;48.590;8.866;2023-07-13T12:05:20;33.50;37.60
18291;DHT22;9271;48.590;8.866;2023-07-13T12:07:48;33.90;39.10
18291;DHT22;9271;48.590;8.866;2023-07-13T12:10:21;33.70;34.50
18291;DHT22;9271;48.590;8.866;2023-07-13T12:12:51;33.00;35.80
18291;DHT22;9271;48.590;8.866;2023-07-13T12:15:18;32.60;36.20
18291;DHT22;9271;48.590;8.866;2023-07-13T12:17:45;32.70;36.20
18291;DHT22;9271;48.590;8.866;2023-07-13T12:20:20;30.30;37.70
18291;DHT22;9271;48.590;8.866;2023-07-13T12:22:48;29.80;38.30
18291;DHT22;9271;48.590;8.866;2023-07-13T12:25:15;29.80;40.60
18291;DHT22;9271;48.590;8.866;2023-07-13T12:27:47;31.50;37.60
18291;DHT22;9271;48.590;8.866;2023-07-13T12:30:24;32.50;37.80
18291;DHT22;9271;48.590;8.866;2023-07-13T12:32:59;31.70;35.60
18291;DHT22;9271;48.590;8.866;2023-07-13T12:35:29;32.60;35.40
18291;DHT22;9271;48.590;8.866;2023-07-13T12:37:58;32.90;35.70
18291;DHT22;9271;48.590;8.866;2023-07-13T12:40:31;33.60;34.20
18291;DHT22;9271;48.590;8.866;2023-07-13T12:43:00;34.10;33.60
18291;DHT22;9271;48.590;8.866;2023-07-13T12:45:30;34.30;33.30
18291;DHT22;9271;48.590;8.866;2023-07-13T12:47:59;33.80;35.10
18291;DHT22;9271;48.590;8.866;2023-07-13T12:50:34;34.70;31.60
18291;DHT22;9271;48.590;8.866;2023-07-13T12:53:05;34.60;34.40
18291;DHT22;9271;48.590;8.866;2023-07-13T12:55:41;35.00;33.80
18291;DHT22;9271;48.590;8.866;2023-07-13T12:58:16;36.00;31.80
18291;DHT22;9271;48.590;8.866;2023-07-13T13:00:49;35.00;30.50
18291;DHT22;9271;48.590;8.866;2023-07-13T13:03:22;33.70;31.10
18291;DHT22;9271;48.590;8.866;2023-07-13T13:05:49;33.60;35.60
18291;DHT22;9271;48.590;8.866;2023-07-13T13:08:22;34.50;31.80
18291;DHT22;9271;48.590;8.866;2023-07-13T13:10:49;36.20;33.00
18291;DHT22;9271;48.590;8.866;2023-07-13T13:13:17;36.90;30.60
18291;DHT22;9271;48.590;8.866;2023-07-13T13:15:44;36.70;30.60
18291;DHT22;9271;48.590;8.866;2023-07-13T13:18:16;36.90;29.70
18291;DHT22;9271;48.590;8.866;2023-07-13T13:20:43;38.80;30.00
18291;DHT22;9271;48.590;8.866;2023-07-13T13:23:12;37.30;26.70
18291;DHT22;9271;48.590;8.866;2023-07-13T13:25:43;35.20;30.20
18291;DHT22;9271;48.590;8.866;2023-07-13T13:28:13;34.90;29.00
18291;DHT22;9271;48.590;8.866;2023-07-13T13:30:43;33.10;29.60
18291;DHT22;9271;48.590;8.866;2023-07-13T13:33:12;31.50;30.90
18291;DHT22;9271;48.590;8.866;2023-07-13T13:35:40;31.40;31.50
18291;DHT22;9271;48.590;8.866;2023-07-13T13:38:11;31.90;33.90
18291;DHT22;9271;48.590;8.866;2023-07-13T13:40:39;33.30;33.00
18291;DHT22;9271;48.590;8.866;2023-07-13T13:43:14;33.20;30.10
18291;DHT22;9271;48.590;8.866;2023-07-13T13:45:43;33.10;32.50
18291;DHT22;9271;48.590;8.866;2023-07-13T13:48:14;31.30;33.00
18291;DHT22;9271;48.590;8.866;2023-07-13T13:50:42;30.00;35.60
18291;DHT22;9271;48.590;8.866;2023-07-13T13:53:10;30.00;35.00
18291;DHT22;9271;48.590;8.866;2023-07-13T13:55:38;31.40;35.10
18291;DHT22;9271;48.590;8.866;2023-07-13T13:58:05;33.90;33.10
18291;DHT22;9271;48.590;8.866;2023-07-13T14:00:31;36.00;31.00
18291;DHT22;9271;48.590;8.866;2023-07-13T14:02:59;37.40;28.90
18291;DHT22;9271;48.590;8.866;2023-07-13T14:05:26;38.30;28.40
18291;DHT22;9271;48.590;8.866;2023-07-13T14:07:55;38.30;27.50
18291;DHT22;9271;48.590;8.866;2023-07-13T14:10:23;36.20;28.10
18291;DHT22;9271;48.590;8.866;2023-07-13T14:12:52;32.00;31.40
18291;DHT22;9271;48.590;8.866;2023-07-13T14:15:22;31.80;32.50
18291;DHT22;9271;48.590;8.866;2023-07-13T14:17:49;32.30;31.50
18291;DHT22;9271;48.590;8.866;2023-07-13T14:20:18;32.30;31.70
18291;DHT22;9271;48.590;8.866;2023-07-13T14:22:45;32.30;33.70
18291;DHT22;9271;48.590;8.866;2023-07-13T14:25:12;32.40;35.30
18291;DHT22;9271;48.590;8.866;2023-07-13T14:27:43;32.30;35.00
18291;DHT22;9271;48.590;8.866;2023-07-13T14:30:13;33.10;34.50
18291;DHT22;9271;48.590;8.866;2023-07-13T14:32:40;34.10;32.90
18291;DHT22;9271;48.590;8.866;2023-07-13T14:35:08;33.30;34.20
18291;DHT22;9271;48.590;8.866;2023-07-13T14:37:38;33.10;32.90
18291;DHT22;9271;48.590;8.866;2023-07-13T14:40:13;32.80;33.80
18291;DHT22;9271;48.590;8.866;2023-07-13T14:42:40;32.40;35.10
18291;DHT22;9271;48.590;8.866;2023-07-13T14:45:13;31.60;35.70
18291;DHT22;9271;48.590;8.866;2023-07-13T14:47:40;31.90;37.60
18291;DHT22;9271;48.590;8.866;2023-07-13T14:50:13;31.80;37.60
18291;DHT22;9271;48.590;8.866;2023-07-13T14:52:42;31.20;38.20
18291;DHT22;9271;48.590;8.866;2023-07-13T14:55:11;31.30;40.60
18291;DHT22;9271;48.590;8.866;2023-07-13T14:57:38;31.40;38.50
18291;DHT22;9271;48.590;8.866;2023-07-13T15:00:11;30.80;38.30
18291;DHT22;9271;48.590;8.866;2023-07-13T15:02:39;30.60;37.80
18291;DHT22;9271;48.590;8.866;2023-07-13T15:05:13;29.90;40.80
18291;DHT22;9271;48.590;8.866;2023-07-13T15:07:41;30.00;40.70
18291;DHT22;9271;48.590;8.866;2023-07-13T15:10:14;30.90;39.60
18291;DHT22;9271;48.590;8.866;2023-07-13T15:12:40;31.70;38.00
18291;DHT22;9271;48.590;8.866;2023-07-13T15:15:08;32.00;38.20
18291;DHT22;9271;48.590;8.866;2023-07-13T15:17:37;33.00;38.60
18291;DHT22;9271;48.590;8.866;2023-07-13T15:20:06;33.40;37.20
18291;DHT22;9271;48.590;8.866;2023-07-13T15:22:38;32.70;36.90
18291;DHT22;9271;48.590;8.866;2023-07-13T15:25:11;32.10;38.70
18291;DHT22;9271;48.590;8.866;2023-07-13T15:27:40;32.30;37.20
18291;DHT22;9271;48.590;8.866;2023-07-13T15:30:08;32.80;36.30
18291;DHT22;9271;48.590;8.866;2023-07-13T15:32:34;32.40;35.70
18291;DHT22;9271;48.590;8.866;2023-07-13T15:35:01;32.30;36.40
18291;DHT22;9271;48.590;8.866;2023-07-13T15:37:28;32.50;37.30
18291;DHT22;9271;48.590;8.866;2023-07-13T15:39:55;33.20;37.20
18291;DHT22;9271;48.590;8.866;2023-07-13T15:42:23;33.60;34.40
18291;DHT22;9271;48.590;8.866;2023-07-13T15:44:50;32.50;36.10
18291;DHT22;9271;48.590;8.866;2023-07-13T15:47:16;31.40;37.70
18291;DHT22;9271;48.590;8.866;2023-07-13T15:49:43;30.60;37.40
18291;DHT22;9271;48.590;8.866;2023-07-13T15:52:16;30.70;39.50
18291;DHT22;9271;48.590;8.866;2023-07-13T15:54:44;30.90;37.90
18291;DHT22;9271;48.590;8.866;2023-07-13T15:57:11;31.30;38.00